Yarrawonga, Victoria

12:39 AM AEDT on January 28, 2015 (GMT +1100)
Mulwala NSW | Change Station
CLOSE
Current Station
Personal Weather Station
Location: Mulwala, NEW SOUTH WALES
Elevation: 443 ft
Nearby Weather Stations

Elev 443 ft 35.99 °S, 146.00 °E | Updated 3 seconds ago

Scattered Clouds
Scattered Clouds
63.5 °F
Feels Like 63.5 °F
N
0.0
Wind Variable Wind from SE
Gusts 0.0 mph

Today
High -- | Low -- °F
--% Chance of Precip.
Yesterday
High -- | Low -- °F
Precip. -- in
6:28 AM 8:28 PM
First Quarter, 54% visible
Pressure 29.89 in
Visibility 6.2 miles
Clouds Scattered Clouds 8000 ft
Dew Point 50 °F
Humidity 62%
Rainfall 0.00 in
Snow Depth Not available.
UV 0.0 out of 12
Pollen Not available.
Air Quality Not available.
Flu Activity Not available.
METAR YMAY 271300Z AUTO 15011KT 9999 // SCT080 19/11 Q1012

More Conditions Fewer Conditions

Pressure 29.89 in
Visibility 6.2 miles
Clouds Scattered Clouds 8000 ft
Dew Point 50 °F
Humidity 62%
Rainfall 0.00 in
Snow Depth Not available.
UV 0.0 out of 12
Pollen Not available.
Air Quality Not available.
Flu Activity Not available.
METAR YMAY 271300Z AUTO 15011KT 9999 // SCT080 19/11 Q1012

More Conditions Fewer Conditions

10-Day Weather Forecast

Almanac

Astronomy

Jan. 28, 2015 Rise Set
Actual Time
Civil Twilight
Nautical Twilight
Astronomical Twilight
Moon
Length of Visible Light
Length of Day
Tomorrow will be .
, % of the Moon is Illuminated

Today's Extremes

Country Highs Country Lows

Community

WunderPhotos

Upload Photos

1,790,614 photos uploaded!

WunderBlogs® & News

Nearby

Air Quality

  Air Quality AQ Index Pollutant
Not available.

Snow Depth

Station Depth Elevation

Earthquake Activity

City Distance Mag. Time & Date
Minimum magnitude displayed is 2.5.

Coastal Water Temperatures

Place Temperature

Nearby Weather Stations